createdAt,value
2018-12-14T00:02:08.085Z,19.85
2018-12-14T00:04:36.529Z,20.30
2018-12-14T00:07:04.935Z,20.43
2018-12-14T00:09:33.280Z,19.92
2018-12-14T00:12:01.997Z,22.20
2018-12-14T00:14:31.694Z,20.90
2018-12-14T00:17:00.129Z,21.62
2018-12-14T00:19:28.722Z,20.97
2018-12-14T00:21:57.718Z,22.40
2018-12-14T00:24:26.136Z,22.73
2018-12-14T00:26:54.448Z,20.95
2018-12-14T00:29:22.911Z,20.72
2018-12-14T00:31:51.714Z,21.53
2018-12-14T00:34:20.086Z,21.13
2018-12-14T00:36:48.553Z,20.75
2018-12-14T00:39:17.298Z,21.10
2018-12-14T00:41:51.731Z,21.40
2018-12-14T00:44:16.675Z,22.70
2018-12-14T00:46:45.205Z,22.10
2018-12-14T00:49:14.081Z,19.30
2018-12-14T00:51:42.484Z,20.40
2018-12-14T00:54:11.354Z,22.20
2018-12-14T00:56:39.908Z,21.00
2018-12-14T00:59:08.311Z,20.63
2018-12-14T01:01:36.758Z,20.92
2018-12-14T01:04:05.112Z,19.92
2018-12-14T01:06:33.478Z,20.65
2018-12-14T01:09:02.146Z,21.33
2018-12-14T01:11:30.539Z,19.47
2018-12-14T01:13:59.487Z,20.90
2018-12-14T01:16:28.082Z,21.77
2018-12-14T01:18:56.472Z,21.57
2018-12-14T01:21:25.084Z,21.02
2018-12-14T01:23:53.495Z,21.57
2018-12-14T01:26:21.812Z,19.35
2018-12-14T01:28:50.187Z,18.65
2018-12-14T01:31:19.525Z,19.10
2018-12-14T01:33:47.938Z,19.55
2018-12-14T01:36:16.276Z,20.35
2018-12-14T01:38:45.295Z,19.43
2018-12-14T01:41:13.661Z,19.05
2018-12-14T01:43:42.033Z,19.98
2018-12-14T01:46:10.479Z,19.05
2018-12-14T01:48:39.048Z,18.23
2018-12-14T01:51:07.530Z,16.90
2018-12-14T01:53:35.889Z,18.17
2018-12-14T01:56:04.334Z,18.75
2018-12-14T01:58:32.776Z,16.93
2018-12-14T02:01:01.337Z,17.83
2018-12-14T02:03:29.879Z,17.60
2018-12-14T02:05:58.360Z,15.45
2018-12-14T02:08:26.774Z,17.27
2018-12-14T02:10:55.233Z,15.45
2018-12-14T02:13:23.736Z,15.05
2018-12-14T02:15:52.424Z,16.45
2018-12-14T02:18:20.758Z,16.00
2018-12-14T02:20:49.176Z,17.30
2018-12-14T02:23:17.521Z,16.40
2018-12-14T02:25:45.890Z,17.80
2018-12-14T02:28:14.765Z,16.02
2018-12-14T02:30:45.999Z,15.95
2018-12-14T02:33:14.483Z,16.25
2018-12-14T02:35:42.955Z,16.23
2018-12-14T02:38:11.336Z,16.50
2018-12-14T02:40:39.873Z,15.88
2018-12-14T02:43:08.311Z,15.85
2018-12-14T02:45:36.639Z,17.12
2018-12-14T02:48:05.057Z,16.77
2018-12-14T02:50:33.579Z,16.82
2018-12-14T02:53:03.408Z,16.37
2018-12-14T02:55:31.749Z,15.70
2018-12-14T02:58:00.790Z,15.48
2018-12-14T03:00:29.213Z,16.77
2018-12-14T03:02:57.737Z,16.02
2018-12-14T03:05:26.396Z,16.97
2018-12-14T03:07:54.790Z,16.73
2018-12-14T03:10:23.130Z,16.97
2018-12-14T03:12:51.566Z,18.48
2018-12-14T03:15:19.927Z,16.32
2018-12-14T03:17:48.294Z,16.32
2018-12-14T03:20:16.787Z,16.48
2018-12-14T03:22:45.278Z,16.13
2018-12-14T03:25:13.724Z,16.73
2018-12-14T03:27:42.123Z,17.82
2018-12-14T03:30:10.602Z,17.48
2018-12-14T03:32:39.093Z,17.35
2018-12-14T03:35:07.593Z,14.83
2018-12-14T03:37:35.977Z,15.95
2018-12-14T03:40:04.664Z,16.77
2018-12-14T03:42:34.681Z,19.12
2018-12-14T03:45:03.259Z,17.50
2018-12-14T03:47:31.888Z,16.95
2018-12-14T03:50:00.250Z,16.47
2018-12-14T03:52:28.532Z,21.10
2018-12-14T03:54:56.861Z,17.07
2018-12-14T03:57:25.627Z,17.92
2018-12-14T03:59:53.971Z,18.48
2018-12-14T04:02:22.397Z,17.17
2018-12-14T04:04:50.783Z,19.65
2018-12-14T04:07:19.156Z,17.30
2018-12-14T04:09:47.571Z,19.57
2018-12-14T04:12:16.038Z,19.55
2018-12-14T04:14:44.392Z,17.62
2018-12-14T04:17:13.227Z,21.15
2018-12-14T04:19:41.465Z,17.75
2018-12-14T04:22:09.797Z,20.12
2018-12-14T04:24:38.284Z,19.50
2018-12-14T04:27:06.850Z,20.03
2018-12-14T04:29:35.272Z,19.35
2018-12-14T04:32:04.083Z,19.48
2018-12-14T04:34:32.881Z,20.90
2018-12-14T04:37:01.230Z,21.20
2018-12-14T04:39:31.172Z,22.13
2018-12-14T04:41:59.683Z,20.17
2018-12-14T04:44:28.445Z,21.23
2018-12-14T04:46:57.703Z,21.05
2018-12-14T04:49:26.302Z,23.70
2018-12-14T04:51:54.531Z,22.00
2018-12-14T04:54:22.926Z,20.77
2018-12-14T04:56:51.276Z,21.45
2018-12-14T04:59:19.616Z,22.32
2018-12-14T05:01:47.908Z,20.97
2018-12-14T05:04:16.230Z,21.30
2018-12-14T05:06:44.517Z,21.73
2018-12-14T05:09:12.938Z,21.60
2018-12-14T05:11:41.697Z,20.27
2018-12-14T05:14:09.976Z,21.62
2018-12-14T05:16:38.225Z,21.70
2018-12-14T05:19:06.564Z,20.08
2018-12-14T05:21:34.752Z,20.77
2018-12-14T05:24:03.082Z,21.42
2018-12-14T05:26:31.293Z,20.40
2018-12-14T05:28:59.612Z,21.95
2018-12-14T05:31:28.056Z,23.23
2018-12-14T05:33:56.323Z,23.32
2018-12-14T05:36:24.568Z,19.37
2018-12-14T05:38:52.856Z,19.82
2018-12-14T05:41:21.440Z,23.65
2018-12-14T05:43:49.675Z,21.93
2018-12-14T05:46:18.971Z,21.23
2018-12-14T05:48:47.291Z,20.85
2018-12-14T05:51:15.913Z,21.93
2018-12-14T05:53:44.240Z,21.52
2018-12-14T05:56:12.515Z,20.25
2018-12-14T05:58:40.723Z,22.52
2018-12-14T06:01:09.043Z,22.42
2018-12-14T06:03:37.296Z,21.50
2018-12-14T06:06:05.622Z,21.27
2018-12-14T06:08:33.873Z,23.15
2018-12-14T06:11:02.254Z,22.47
2018-12-14T06:13:30.567Z,23.10
2018-12-14T06:15:58.840Z,21.95
2018-12-14T06:18:27.143Z,22.25
2018-12-14T06:20:55.561Z,22.23
2018-12-14T06:23:23.971Z,22.75
2018-12-14T06:25:52.674Z,23.47
2018-12-14T06:28:21.352Z,23.75
2018-12-14T06:30:49.547Z,25.40
2018-12-14T06:33:18.095Z,27.45
2018-12-14T06:35:46.334Z,23.80
2018-12-14T06:38:14.713Z,24.45
2018-12-14T06:40:42.963Z,26.23
2018-12-14T06:43:15.513Z,26.52
2018-12-14T06:45:41.518Z,26.20
2018-12-14T06:48:10.057Z,27.17
2018-12-14T06:50:38.424Z,25.70
2018-12-14T06:53:06.972Z,28.10
2018-12-14T06:55:35.230Z,28.02
2018-12-14T06:58:03.487Z,26.00
2018-12-14T07:00:31.836Z,28.55
2018-12-14T07:03:00.351Z,28.38
2018-12-14T07:05:28.605Z,26.93
2018-12-14T07:07:56.963Z,27.83
2018-12-14T07:10:25.293Z,26.62
2018-12-14T07:12:53.675Z,27.97
2018-12-14T07:15:22.106Z,29.32
2018-12-14T07:17:50.356Z,27.20
2018-12-14T07:20:18.722Z,27.00
2018-12-14T07:22:46.955Z,29.30
2018-12-14T07:25:15.240Z,29.92
2018-12-14T07:27:43.485Z,27.63
2018-12-14T07:30:11.733Z,30.15
2018-12-14T07:32:40.081Z,28.57
2018-12-14T07:35:08.494Z,29.95
2018-12-14T07:37:36.712Z,30.50
2018-12-14T07:40:05.884Z,27.50
2018-12-14T07:42:34.472Z,29.65
2018-12-14T07:45:02.762Z,31.30
2018-12-14T07:47:31.026Z,28.70
2018-12-14T07:49:59.248Z,27.87
2018-12-14T07:52:27.441Z,26.90
2018-12-14T07:54:55.621Z,29.00
2018-12-14T07:57:23.929Z,28.12
2018-12-14T07:59:52.127Z,25.83
2018-12-14T08:02:20.447Z,25.62
2018-12-14T08:04:49.704Z,24.52
2018-12-14T08:07:18.072Z,24.92
2018-12-14T08:09:46.387Z,25.65
2018-12-14T08:12:14.728Z,26.52
2018-12-14T08:14:43.012Z,25.90
2018-12-14T08:17:12.566Z,23.95
2018-12-14T08:19:40.820Z,25.05
2018-12-14T08:22:09.105Z,23.77
2018-12-14T08:24:37.340Z,25.03
2018-12-14T08:27:05.959Z,23.22
2018-12-14T08:29:34.254Z,25.65
2018-12-14T08:32:03.280Z,24.80
2018-12-14T08:34:31.670Z,24.23
2018-12-14T08:37:00.638Z,24.02
2018-12-14T08:39:30.186Z,26.97
2018-12-14T08:41:59.027Z,24.50
2018-12-14T08:44:27.805Z,24.43
2018-12-14T08:46:57.183Z,26.05
2018-12-14T08:49:26.130Z,24.63
2018-12-14T08:51:54.936Z,22.17
2018-12-14T08:54:23.888Z,25.30
2018-12-14T08:56:52.686Z,22.58
2018-12-14T08:59:22.054Z,22.42
2018-12-14T09:01:50.870Z,22.22
2018-12-14T09:04:19.765Z,24.40
2018-12-14T09:06:48.787Z,23.42
2018-12-14T09:09:17.994Z,22.93
2018-12-14T09:11:48.154Z,20.70
2018-12-14T09:14:17.759Z,18.98
2018-12-14T09:16:46.726Z,20.40
2018-12-14T09:19:15.520Z,22.50
2018-12-14T09:21:44.340Z,20.12
2018-12-14T09:24:13.355Z,19.48
2018-12-14T09:26:42.134Z,21.57
2018-12-14T09:29:11.005Z,18.27
2018-12-14T09:31:40.744Z,19.12
2018-12-14T09:34:09.721Z,20.10
2018-12-14T09:36:38.715Z,19.50
2018-12-14T09:39:08.521Z,19.85
2018-12-14T09:41:38.088Z,19.00
2018-12-14T09:44:07.861Z,18.32
2018-12-14T09:46:37.774Z,19.00
2018-12-14T09:49:07.374Z,19.17
2018-12-14T09:51:36.161Z,18.62
2018-12-14T09:54:05.159Z,19.12
2018-12-14T09:56:34.066Z,17.65
2018-12-14T09:59:02.914Z,18.02
2018-12-14T10:01:31.605Z,17.92
2018-12-14T10:04:00.440Z,18.35
2018-12-14T10:06:29.157Z,16.95
2018-12-14T10:08:57.921Z,18.67
2018-12-14T10:11:26.727Z,15.65
2018-12-14T10:14:00.780Z,16.82
2018-12-14T10:16:26.724Z,16.30
2018-12-14T10:18:56.370Z,15.72
2018-12-14T10:21:25.292Z,15.70
2018-12-14T10:23:54.507Z,15.48
2018-12-14T10:26:23.356Z,15.00
2018-12-14T10:28:52.055Z,14.33
2018-12-14T10:31:20.861Z,15.05
2018-12-14T10:33:49.938Z,15.00
2018-12-14T10:36:18.794Z,14.33
2018-12-14T10:38:47.522Z,14.75
2018-12-14T10:41:16.508Z,14.90
2018-12-14T10:43:45.496Z,14.58
2018-12-14T10:46:14.146Z,14.38
2018-12-14T10:48:43.008Z,14.07
2018-12-14T10:51:11.939Z,12.40
2018-12-14T10:53:40.721Z,14.95
2018-12-14T10:56:10.214Z,13.45
2018-12-14T10:58:38.917Z,13.65
2018-12-14T11:01:14.382Z,14.05
2018-12-14T11:03:43.234Z,13.78
2018-12-14T11:06:12.009Z,12.45
2018-12-14T11:08:40.717Z,13.65
2018-12-14T11:11:09.510Z,13.10
2018-12-14T11:13:38.170Z,12.07
2018-12-14T11:16:07.346Z,14.23
2018-12-14T11:18:38.565Z,14.70
2018-12-14T11:21:07.573Z,13.88
2018-12-14T11:23:36.254Z,12.65
2018-12-14T11:26:05.198Z,13.32
2018-12-14T11:28:33.923Z,13.70
2018-12-14T11:31:02.665Z,12.00
2018-12-14T11:33:31.658Z,13.05
2018-12-14T11:36:00.573Z,11.80
2018-12-14T11:38:29.362Z,12.53
2018-12-14T11:40:59.203Z,11.43
2018-12-14T11:43:28.859Z,12.23
2018-12-14T11:45:58.548Z,11.22
2018-12-14T11:48:27.677Z,12.47
2018-12-14T11:50:56.752Z,11.88
2018-12-14T11:53:25.374Z,11.00
2018-12-14T11:55:54.495Z,11.85
2018-12-14T11:58:23.085Z,12.07
2018-12-14T12:00:51.857Z,11.80
2018-12-14T12:03:20.750Z,12.10
2018-12-14T12:05:49.500Z,11.20
2018-12-14T12:08:18.430Z,12.43
2018-12-14T12:10:47.306Z,10.05
2018-12-14T12:13:16.422Z,10.03
2018-12-14T12:15:45.301Z,9.78
2018-12-14T12:18:13.853Z,10.75
2018-12-14T12:20:42.804Z,11.93
2018-12-14T12:23:11.529Z,11.30
2018-12-14T12:25:40.487Z,10.13
2018-12-14T12:28:09.061Z,11.73
2018-12-14T12:30:37.743Z,10.72
2018-12-14T12:33:06.475Z,11.43
2018-12-14T12:35:36.106Z,12.40
2018-12-14T12:38:04.841Z,12.35
2018-12-14T12:40:33.604Z,12.80
2018-12-14T12:43:02.673Z,14.00
2018-12-14T12:45:31.569Z,14.73
2018-12-14T12:48:00.512Z,14.25
2018-12-14T12:50:30.341Z,14.20
2018-12-14T12:52:59.607Z,15.25
2018-12-14T12:55:28.436Z,15.63
2018-12-14T12:57:57.439Z,15.95
2018-12-14T13:00:26.420Z,15.38
2018-12-14T13:02:57.234Z,14.30
2018-12-14T13:05:26.283Z,14.80
2018-12-14T13:07:55.093Z,15.10
2018-12-14T13:10:23.917Z,13.50
2018-12-14T13:12:52.636Z,13.93
2018-12-14T13:15:21.478Z,14.47
2018-12-14T13:17:50.205Z,13.67
2018-12-14T13:20:19.065Z,15.23
2018-12-14T13:22:47.759Z,16.93
2018-12-14T13:25:16.598Z,15.83
2018-12-14T13:27:48.704Z,16.20
2018-12-14T13:30:17.493Z,17.05
2018-12-14T13:32:46.298Z,16.10
2018-12-14T13:35:15.010Z,16.55
2018-12-14T13:37:43.757Z,15.83
2018-12-14T13:40:12.744Z,13.50
2018-12-14T13:42:42.150Z,13.80
2018-12-14T13:45:11.040Z,15.10
2018-12-14T13:47:40.175Z,15.93
2018-12-14T13:50:09.018Z,16.60
2018-12-14T13:52:38.386Z,15.13
2018-12-14T13:55:07.130Z,15.48
2018-12-14T13:57:36.327Z,17.48
2018-12-14T14:00:19.377Z,16.07
2018-12-14T14:02:48.202Z,15.40
2018-12-14T14:05:17.422Z,15.43
2018-12-14T14:07:46.252Z,16.32
2018-12-14T14:10:15.188Z,16.85
2018-12-14T14:12:43.995Z,17.20
2018-12-14T14:15:12.874Z,17.42
2018-12-14T14:17:41.230Z,18.02
2018-12-14T14:20:10.197Z,16.97
2018-12-14T14:22:38.933Z,19.10
2018-12-14T14:25:07.937Z,19.00
2018-12-14T14:27:36.773Z,18.80
2018-12-14T14:30:06.014Z,20.20
2018-12-14T14:32:37.013Z,21.23
2018-12-14T14:35:06.494Z,22.40
2018-12-14T14:37:35.565Z,23.27
2018-12-14T14:40:04.944Z,21.90
2018-12-14T14:42:33.837Z,22.22
2018-12-14T14:45:02.742Z,23.07
2018-12-14T14:47:31.786Z,23.27
2018-12-14T14:50:00.553Z,23.57
2018-12-14T14:52:29.855Z,23.12
2018-12-14T14:55:02.670Z,23.07
2018-12-14T14:57:32.355Z,25.35
2018-12-14T15:00:01.236Z,23.50
2018-12-14T15:02:30.111Z,23.95
2018-12-14T15:05:04.067Z,25.25
2018-12-14T15:07:33.068Z,25.02
2018-12-14T15:10:02.052Z,23.87
2018-12-14T15:12:31.467Z,25.40
2018-12-14T15:15:06.421Z,25.20
2018-12-14T15:17:31.597Z,26.15
2018-12-14T15:20:00.686Z,27.17
2018-12-14T15:22:30.419Z,25.27
2018-12-14T15:24:59.374Z,25.72
2018-12-14T15:27:29.397Z,25.27
2018-12-14T15:29:58.366Z,24.77
2018-12-14T15:32:27.558Z,26.65
2018-12-14T15:34:56.629Z,27.07
2018-12-14T15:37:29.473Z,28.98
2018-12-14T15:39:58.410Z,26.62
2018-12-14T15:42:27.456Z,27.45
2018-12-14T15:44:56.258Z,27.60
2018-12-14T15:47:24.973Z,26.82
2018-12-14T15:49:53.257Z,26.77
2018-12-14T15:52:21.565Z,27.27
2018-12-14T15:54:49.934Z,27.45
2018-12-14T15:57:18.643Z,27.73
2018-12-14T15:59:46.917Z,27.65
2018-12-14T16:02:15.197Z,27.17
2018-12-14T16:04:43.712Z,25.97
2018-12-14T16:07:11.961Z,27.62
2018-12-14T16:09:40.298Z,27.07
2018-12-14T16:12:09.129Z,28.98
2018-12-14T16:14:37.601Z,26.62
2018-12-14T16:17:06.057Z,27.98
2018-12-14T16:19:34.377Z,27.87
2018-12-14T16:22:02.773Z,26.93
2018-12-14T16:24:31.310Z,29.37
2018-12-14T16:26:59.682Z,28.17
2018-12-14T16:29:28.060Z,27.87
2018-12-14T16:31:56.422Z,30.27
2018-12-14T16:34:24.735Z,28.02
2018-12-14T16:36:53.077Z,30.32
2018-12-14T16:39:21.727Z,26.82
2018-12-14T16:41:51.258Z,28.30
2018-12-14T16:44:19.999Z,27.02
2018-12-14T16:46:48.274Z,29.87
2018-12-14T16:49:16.630Z,27.37
2018-12-14T16:51:45.054Z,27.95
2018-12-14T16:54:13.336Z,29.87
2018-12-14T16:56:41.752Z,28.98
2018-12-14T16:59:10.196Z,27.93
2018-12-14T17:01:38.697Z,30.30
2018-12-14T17:04:07.104Z,27.55
2018-12-14T17:06:36.972Z,30.23
2018-12-14T17:09:06.567Z,30.47
2018-12-14T17:11:34.911Z,29.60
2018-12-14T17:14:04.972Z,30.85
2018-12-14T17:16:33.406Z,28.80
2018-12-14T17:19:01.732Z,30.80
2018-12-14T17:21:30.000Z,28.77
2018-12-14T17:23:58.237Z,26.87
2018-12-14T17:26:26.566Z,31.97
2018-12-14T17:28:54.981Z,29.98
2018-12-14T17:31:23.270Z,28.57
2018-12-14T17:33:51.707Z,29.42
2018-12-14T17:36:20.197Z,29.18
2018-12-14T17:38:48.609Z,31.15
2018-12-14T17:41:17.032Z,30.37
2018-12-14T17:43:45.377Z,31.48
2018-12-14T17:46:15.248Z,29.77
2018-12-14T17:48:43.480Z,30.70
2018-12-14T17:51:11.827Z,31.05
2018-12-14T17:53:40.839Z,32.90
2018-12-14T17:56:09.174Z,31.12
2018-12-14T17:58:37.565Z,32.95
2018-12-14T18:01:05.896Z,32.53
2018-12-14T18:03:35.076Z,32.42
2018-12-14T18:06:03.480Z,34.25
2018-12-14T18:08:31.831Z,31.75
2018-12-14T18:11:00.639Z,32.90
2018-12-14T18:13:29.172Z,33.55
2018-12-14T18:15:57.504Z,33.45
2018-12-14T18:18:25.855Z,33.13
2018-12-14T18:20:54.266Z,32.00
2018-12-14T18:23:22.746Z,31.10
2018-12-14T18:25:51.127Z,32.28
2018-12-14T18:28:19.420Z,32.90
2018-12-14T18:30:47.717Z,33.42
2018-12-14T18:33:16.150Z,34.53
2018-12-14T18:35:44.483Z,32.55
2018-12-14T18:38:12.837Z,31.82
2018-12-14T18:40:41.296Z,32.28
2018-12-14T18:43:09.651Z,32.38
2018-12-14T18:45:37.946Z,31.68
2018-12-14T18:48:06.220Z,32.48
2018-12-14T18:50:34.544Z,31.35
2018-12-14T18:53:02.813Z,32.93
2018-12-14T18:55:31.254Z,34.35
2018-12-14T18:57:59.997Z,34.43
2018-12-14T19:00:28.851Z,32.17
2018-12-14T19:02:57.249Z,34.80
2018-12-14T19:05:25.629Z,31.65
2018-12-14T19:07:53.867Z,34.58
2018-12-14T19:10:22.369Z,31.45
2018-12-14T19:12:50.725Z,33.35
2018-12-14T19:15:19.107Z,31.12
2018-12-14T19:17:47.459Z,33.30
2018-12-14T19:20:15.867Z,33.58
2018-12-14T19:22:44.268Z,31.48
2018-12-14T19:25:12.611Z,33.58
2018-12-14T19:27:41.801Z,31.68
2018-12-14T19:30:10.245Z,32.25
2018-12-14T19:32:38.561Z,32.10
2018-12-14T19:35:07.368Z,32.25
2018-12-14T19:37:35.825Z,30.88
2018-12-14T19:40:04.957Z,36.17
2018-12-14T19:42:33.282Z,32.03
2018-12-14T19:45:01.931Z,30.93
2018-12-14T19:47:30.318Z,31.15
2018-12-14T19:49:58.667Z,31.97
2018-12-14T19:52:28.590Z,32.07
2018-12-14T19:54:56.918Z,31.00
2018-12-14T19:57:25.244Z,31.90
2018-12-14T19:59:53.660Z,32.17
2018-12-14T20:02:22.215Z,29.85
2018-12-14T20:04:50.578Z,30.02
2018-12-14T20:07:18.947Z,30.32
2018-12-14T20:09:47.231Z,28.10
2018-12-14T20:12:15.689Z,30.60
2018-12-14T20:14:44.027Z,28.83
2018-12-14T20:17:12.274Z,30.90
2018-12-14T20:19:40.909Z,30.20
2018-12-14T20:22:09.242Z,31.10
2018-12-14T20:24:37.735Z,29.63
2018-12-14T20:27:06.076Z,31.12
2018-12-14T20:29:34.413Z,29.73
2018-12-14T20:32:02.755Z,30.00
2018-12-14T20:34:31.037Z,28.70
2018-12-14T20:37:00.561Z,28.52
2018-12-14T20:39:28.860Z,29.20
2018-12-14T20:41:57.405Z,27.80
2018-12-14T20:44:25.743Z,29.60
2018-12-14T20:46:54.103Z,25.62
2018-12-14T20:49:22.466Z,25.88
2018-12-14T20:51:51.243Z,26.95
2018-12-14T20:54:20.937Z,27.42
2018-12-14T20:56:51.776Z,26.90
2018-12-14T20:59:19.784Z,26.48
2018-12-14T21:01:48.082Z,25.23
2018-12-14T21:04:16.426Z,25.62
2018-12-14T21:06:44.968Z,25.68
2018-12-14T21:09:13.361Z,27.45
2018-12-14T21:11:41.701Z,26.25
2018-12-14T21:14:10.104Z,28.23
2018-12-14T21:16:38.379Z,25.95
2018-12-14T21:19:06.870Z,28.92
2018-12-14T21:21:35.282Z,27.30
2018-12-14T21:24:03.664Z,28.52
2018-12-14T21:26:32.095Z,25.77
2018-12-14T21:29:00.427Z,26.00
2018-12-14T21:31:28.839Z,25.80
2018-12-14T21:33:57.184Z,25.60
2018-12-14T21:36:25.534Z,25.97
2018-12-14T21:38:53.865Z,26.17
2018-12-14T21:41:22.317Z,26.07
2018-12-14T21:43:50.555Z,25.35
2018-12-14T21:46:18.787Z,25.55
2018-12-14T21:48:47.600Z,25.55
2018-12-14T21:51:16.118Z,26.50
2018-12-14T21:53:44.480Z,24.65
2018-12-14T21:56:13.852Z,23.85
2018-12-14T21:58:42.187Z,22.45
2018-12-14T22:01:10.608Z,20.48
2018-12-14T22:03:38.976Z,22.97
2018-12-14T22:06:07.544Z,21.07
2018-12-14T22:08:35.826Z,22.25
2018-12-14T22:11:04.454Z,23.35
2018-12-14T22:13:32.921Z,24.12
2018-12-14T22:16:01.229Z,22.45
2018-12-14T22:18:29.476Z,24.25
2018-12-14T22:20:58.223Z,25.87
2018-12-14T22:23:26.919Z,24.37
2018-12-14T22:25:55.387Z,22.60
2018-12-14T22:28:24.077Z,22.20
2018-12-14T22:30:53.417Z,21.90
2018-12-14T22:33:21.702Z,23.02
2018-12-14T22:35:50.086Z,20.27
2018-12-14T22:38:18.898Z,23.25
2018-12-14T22:40:47.213Z,20.32
2018-12-14T22:43:15.483Z,20.85
2018-12-14T22:45:43.856Z,19.10
2018-12-14T22:48:12.845Z,21.27
2018-12-14T22:50:41.173Z,19.95
2018-12-14T22:53:09.611Z,20.55
2018-12-14T22:55:37.861Z,20.75
2018-12-14T22:58:06.154Z,18.65
2018-12-14T23:00:37.378Z,20.20
2018-12-14T23:03:07.017Z,19.93
2018-12-14T23:05:35.324Z,19.55
2018-12-14T23:08:03.754Z,19.07
2018-12-14T23:10:32.128Z,19.12
2018-12-14T23:13:01.306Z,20.55
2018-12-14T23:15:29.835Z,19.95
2018-12-14T23:17:58.286Z,19.67
2018-12-14T23:20:26.635Z,19.55
2018-12-14T23:22:54.932Z,20.37
2018-12-14T23:25:23.514Z,18.23
2018-12-14T23:27:51.785Z,20.85
2018-12-14T23:30:20.137Z,18.07
2018-12-14T23:32:49.245Z,16.50
2018-12-14T23:35:17.619Z,17.02
2018-12-14T23:37:46.765Z,17.95
2018-12-14T23:40:15.277Z,16.75
2018-12-14T23:42:43.683Z,17.02
2018-12-14T23:45:12.209Z,17.75
2018-12-14T23:47:40.527Z,17.50
2018-12-14T23:50:08.882Z,15.32
2018-12-14T23:52:37.401Z,15.72
2018-12-14T23:55:06.014Z,15.23
2018-12-14T23:57:34.397Z,15.90
